CheckWX is a tool to help pilots better visualize weather data.  It is not intended as a substitute for an official pre-flight weather briefing.

18:08:13 UTC

KENW METAR
Kenosha Regional Airport
Kenosha, Wisconsin, USA
Current

15 mins ago

KENW 241753Z VRB04KT 10SM CLR 16/03 A2996 RMK AO2 SLP149 T01560033 10161 20033 58024
Observed
Apr-24 @ 17:53 UTC
Wind
  • Variable at 4 KTS
Visibility
10 SM
Flight Rules
VFR
Cloud Levels
  • Clear skies
Temperature
16°C / 61°F
Dewpoint
C / 37°F
Humidity
42%
Altimeter
29.96" Hg
Pressure
1014.52 hPa
Previous

1 hour ago

KENW 241653Z 18006KT 10SM CLR 14/03 A3000 RMK AO2 SLP161 T01440028
Observed
Apr-24 @ 16:53 UTC
Wind
  • 180° at 6 KTS
Visibility
10 SM
Flight Rules
VFR
Cloud Levels
  • Clear skies
Temperature
14°C / 57°F
Dewpoint
C / 37°F
Humidity
48%
Altimeter
30" Hg
Pressure
1015.92 hPa
Previous

2 hours ago

KENW 241553Z 17007KT 10SM CLR 13/03 A3002 RMK AO2 SLP170 T01330033
Observed
Apr-24 @ 15:53 UTC
Wind
  • 170° at 7 KTS
Visibility
10 SM
Flight Rules
VFR
Cloud Levels
  • Clear skies
Temperature
13°C / 55°F
Dewpoint
C / 37°F
Humidity
51%
Altimeter
30.02" Hg
Pressure
1016.62 hPa